sensor_id;sensor_type;location;lat;lon;timestamp;temperature;humidity
49242;DHT22;35079;52.704;13.814;2022-11-13T00:02:18;10.50;99.90
49242;DHT22;35079;52.704;13.814;2022-11-13T00:04:44;10.40;99.90
49242;DHT22;35079;52.704;13.814;2022-11-13T00:07:09;10.50;99.90
49242;DHT22;35079;52.704;13.814;2022-11-13T00:09:35;10.50;99.90
49242;DHT22;35079;52.704;13.814;2022-11-13T00:12:00;10.50;99.90
49242;DHT22;35079;52.704;13.814;2022-11-13T00:14:26;10.50;99.90
49242;DHT22;35079;52.704;13.814;2022-11-13T00:16:51;10.40;99.90
49242;DHT22;35079;52.704;13.814;2022-11-13T00:19:29;10.50;99.90
49242;DHT22;35079;52.704;13.814;2022-11-13T00:21:56;10.40;99.90
49242;DHT22;35079;52.704;13.814;2022-11-13T00:24:24;10.50;99.90
49242;DHT22;35079;52.704;13.814;2022-11-13T00:26:49;10.50;99.90
49242;DHT22;35079;52.704;13.814;2022-11-13T00:29:15;10.50;99.90
49242;DHT22;35079;52.704;13.814;2022-11-13T00:31:40;10.50;99.90
49242;DHT22;35079;52.704;13.814;2022-11-13T00:34:07;10.50;99.90
49242;DHT22;35079;52.704;13.814;2022-11-13T00:36:32;10.40;99.90
49242;DHT22;35079;52.704;13.814;2022-11-13T00:38:58;10.40;99.90
49242;DHT22;35079;52.704;13.814;2022-11-13T00:41:24;10.40;99.90
49242;DHT22;35079;52.704;13.814;2022-11-13T00:43:50;10.40;99.90
49242;DHT22;35079;52.704;13.814;2022-11-13T00:46:15;10.40;99.90
49242;DHT22;35079;52.704;13.814;2022-11-13T00:48:41;10.40;99.90
49242;DHT22;35079;52.704;13.814;2022-11-13T00:51:06;10.50;99.90
49242;DHT22;35079;52.704;13.814;2022-11-13T00:53:32;10.40;99.90
49242;DHT22;35079;52.704;13.814;2022-11-13T00:55:58;10.30;99.90
49242;DHT22;35079;52.704;13.814;2022-11-13T00:58:25;10.40;99.90
49242;DHT22;35079;52.704;13.814;2022-11-13T01:00:51;10.40;99.90
49242;DHT22;35079;52.704;13.814;2022-11-13T01:03:17;10.40;99.90
49242;DHT22;35079;52.704;13.814;2022-11-13T01:05:44;10.40;99.90
49242;DHT22;35079;52.704;13.814;2022-11-13T01:08:11;10.40;99.90
49242;DHT22;35079;52.704;13.814;2022-11-13T01:10:46;10.50;99.90
49242;DHT22;35079;52.704;13.814;2022-11-13T01:13:12;10.40;99.90
49242;DHT22;35079;52.704;13.814;2022-11-13T01:15:42;10.50;99.90
49242;DHT22;35079;52.704;13.814;2022-11-13T01:18:10;10.50;99.90
49242;DHT22;35079;52.704;13.814;2022-11-13T01:20:36;10.40;99.90
49242;DHT22;35079;52.704;13.814;2022-11-13T01:23:02;10.50;99.90
49242;DHT22;35079;52.704;13.814;2022-11-13T01:25:28;10.50;99.90
49242;DHT22;35079;52.704;13.814;2022-11-13T01:27:54;10.40;99.90
49242;DHT22;35079;52.704;13.814;2022-11-13T01:30:19;10.40;99.90
49242;DHT22;35079;52.704;13.814;2022-11-13T01:32:45;10.40;99.90
49242;DHT22;35079;52.704;13.814;2022-11-13T01:35:11;10.40;99.90
49242;DHT22;35079;52.704;13.814;2022-11-13T01:37:36;10.60;99.90
49242;DHT22;35079;52.704;13.814;2022-11-13T01:40:02;10.50;99.90
49242;DHT22;35079;52.704;13.814;2022-11-13T01:42:28;10.40;99.90
49242;DHT22;35079;52.704;13.814;2022-11-13T01:44:56;10.50;99.90
49242;DHT22;35079;52.704;13.814;2022-11-13T01:47:24;10.60;99.90
49242;DHT22;35079;52.704;13.814;2022-11-13T01:49:56;10.70;99.90
49242;DHT22;35079;52.704;13.814;2022-11-13T01:52:34;10.70;99.90
49242;DHT22;35079;52.704;13.814;2022-11-13T01:55:07;10.60;99.90
49242;DHT22;35079;52.704;13.814;2022-11-13T01:57:35;10.60;99.90
49242;DHT22;35079;52.704;13.814;2022-11-13T02:00:06;10.60;99.90
49242;DHT22;35079;52.704;13.814;2022-11-13T02:02:32;10.70;99.90
49242;DHT22;35079;52.704;13.814;2022-11-13T02:04:57;10.60;99.90
49242;DHT22;35079;52.704;13.814;2022-11-13T02:07:23;10.50;99.90
49242;DHT22;35079;52.704;13.814;2022-11-13T02:09:52;10.50;99.90
49242;DHT22;35079;52.704;13.814;2022-11-13T02:12:26;10.50;99.90
49242;DHT22;35079;52.704;13.814;2022-11-13T02:14:53;10.60;99.90
49242;DHT22;35079;52.704;13.814;2022-11-13T02:17:30;10.60;99.90
49242;DHT22;35079;52.704;13.814;2022-11-13T02:20:02;10.60;99.90
49242;DHT22;35079;52.704;13.814;2022-11-13T02:22:37;10.60;99.90
49242;DHT22;35079;52.704;13.814;2022-11-13T02:25:05;10.60;99.90
49242;DHT22;35079;52.704;13.814;2022-11-13T02:27:44;10.60;99.90
49242;DHT22;35079;52.704;13.814;2022-11-13T02:30:22;10.60;99.90
49242;DHT22;35079;52.704;13.814;2022-11-13T02:32:51;10.50;99.90
49242;DHT22;35079;52.704;13.814;2022-11-13T02:35:30;10.70;99.90
49242;DHT22;35079;52.704;13.814;2022-11-13T02:37:59;10.70;99.90
49242;DHT22;35079;52.704;13.814;2022-11-13T02:40:25;10.60;99.90
49242;DHT22;35079;52.704;13.814;2022-11-13T02:42:51;10.70;99.90
49242;DHT22;35079;52.704;13.814;2022-11-13T02:45:16;10.70;99.90
49242;DHT22;35079;52.704;13.814;2022-11-13T02:47:42;10.70;99.90
49242;DHT22;35079;52.704;13.814;2022-11-13T02:50:09;10.70;99.90
49242;DHT22;35079;52.704;13.814;2022-11-13T02:52:35;10.80;99.90
49242;DHT22;35079;52.704;13.814;2022-11-13T02:55:01;10.80;99.90
49242;DHT22;35079;52.704;13.814;2022-11-13T02:57:27;10.70;99.90
49242;DHT22;35079;52.704;13.814;2022-11-13T02:59:53;10.70;99.90
49242;DHT22;35079;52.704;13.814;2022-11-13T03:02:18;10.70;99.90
49242;DHT22;35079;52.704;13.814;2022-11-13T03:04:44;10.70;99.90
49242;DHT22;35079;52.704;13.814;2022-11-13T03:07:10;10.60;99.90
49242;DHT22;35079;52.704;13.814;2022-11-13T03:09:36;10.70;99.90
49242;DHT22;35079;52.704;13.814;2022-11-13T03:12:02;10.70;99.90
49242;DHT22;35079;52.704;13.814;2022-11-13T03:14:28;10.70;99.90
49242;DHT22;35079;52.704;13.814;2022-11-13T03:16:53;10.80;99.90
49242;DHT22;35079;52.704;13.814;2022-11-13T03:19:19;10.60;99.90
49242;DHT22;35079;52.704;13.814;2022-11-13T03:21:44;10.60;99.90
49242;DHT22;35079;52.704;13.814;2022-11-13T03:24:10;10.50;99.90
49242;DHT22;35079;52.704;13.814;2022-11-13T03:26:35;10.50;99.90
49242;DHT22;35079;52.704;13.814;2022-11-13T03:29:01;10.40;99.90
49242;DHT22;35079;52.704;13.814;2022-11-13T03:31:27;10.40;99.90
49242;DHT22;35079;52.704;13.814;2022-11-13T03:33:53;10.60;99.90
49242;DHT22;35079;52.704;13.814;2022-11-13T03:36:19;10.50;99.90
49242;DHT22;35079;52.704;13.814;2022-11-13T03:38:44;10.50;99.90
49242;DHT22;35079;52.704;13.814;2022-11-13T03:41:10;10.50;99.90
49242;DHT22;35079;52.704;13.814;2022-11-13T03:43:39;10.50;99.90
49242;DHT22;35079;52.704;13.814;2022-11-13T03:46:05;10.60;99.90
49242;DHT22;35079;52.704;13.814;2022-11-13T03:48:30;10.50;99.90
49242;DHT22;35079;52.704;13.814;2022-11-13T03:50:56;10.60;99.90
49242;DHT22;35079;52.704;13.814;2022-11-13T03:53:22;10.50;99.90
49242;DHT22;35079;52.704;13.814;2022-11-13T03:55:47;10.70;99.90
49242;DHT22;35079;52.704;13.814;2022-11-13T03:58:13;10.70;99.90
49242;DHT22;35079;52.704;13.814;2022-11-13T04:00:39;10.70;99.90
49242;DHT22;35079;52.704;13.814;2022-11-13T04:03:05;10.60;99.90
49242;DHT22;35079;52.704;13.814;2022-11-13T04:05:31;10.60;99.90
49242;DHT22;35079;52.704;13.814;2022-11-13T04:07:57;10.50;99.90
49242;DHT22;35079;52.704;13.814;2022-11-13T04:10:22;10.60;99.90
49242;DHT22;35079;52.704;13.814;2022-11-13T04:12:48;10.60;99.90
49242;DHT22;35079;52.704;13.814;2022-11-13T04:15:14;10.60;99.90
49242;DHT22;35079;52.704;13.814;2022-11-13T04:17:39;10.50;99.90
49242;DHT22;35079;52.704;13.814;2022-11-13T04:20:06;10.50;99.90
49242;DHT22;35079;52.704;13.814;2022-11-13T04:22:32;10.50;99.90
49242;DHT22;35079;52.704;13.814;2022-11-13T04:24:58;10.40;99.90
49242;DHT22;35079;52.704;13.814;2022-11-13T04:27:23;10.60;99.90
49242;DHT22;35079;52.704;13.814;2022-11-13T04:29:49;10.50;99.90
49242;DHT22;35079;52.704;13.814;2022-11-13T04:32:14;10.50;99.90
49242;DHT22;35079;52.704;13.814;2022-11-13T04:34:40;10.40;99.90
49242;DHT22;35079;52.704;13.814;2022-11-13T04:37:06;10.40;99.90
49242;DHT22;35079;52.704;13.814;2022-11-13T04:39:31;10.50;99.90
49242;DHT22;35079;52.704;13.814;2022-11-13T04:41:57;10.60;99.90
49242;DHT22;35079;52.704;13.814;2022-11-13T04:44:41;10.50;99.90
49242;DHT22;35079;52.704;13.814;2022-11-13T04:47:07;10.40;99.90
49242;DHT22;35079;52.704;13.814;2022-11-13T04:49:33;10.40;99.90
49242;DHT22;35079;52.704;13.814;2022-11-13T04:51:58;10.50;99.90
49242;DHT22;35079;52.704;13.814;2022-11-13T04:54:24;10.50;99.90
49242;DHT22;35079;52.704;13.814;2022-11-13T04:56:49;10.30;99.90
49242;DHT22;35079;52.704;13.814;2022-11-13T04:59:15;10.30;99.90
49242;DHT22;35079;52.704;13.814;2022-11-13T05:01:41;10.40;99.90
49242;DHT22;35079;52.704;13.814;2022-11-13T05:04:08;10.50;99.90
49242;DHT22;35079;52.704;13.814;2022-11-13T05:06:34;10.50;99.90
49242;DHT22;35079;52.704;13.814;2022-11-13T05:09:00;10.50;99.90
49242;DHT22;35079;52.704;13.814;2022-11-13T05:11:26;10.50;99.90
49242;DHT22;35079;52.704;13.814;2022-11-13T05:13:51;10.70;99.90
49242;DHT22;35079;52.704;13.814;2022-11-13T05:16:17;10.50;99.90
49242;DHT22;35079;52.704;13.814;2022-11-13T05:18:42;10.40;99.90
49242;DHT22;35079;52.704;13.814;2022-11-13T05:21:08;10.40;99.90
49242;DHT22;35079;52.704;13.814;2022-11-13T05:23:34;10.60;99.90
49242;DHT22;35079;52.704;13.814;2022-11-13T05:26:05;10.50;99.90
49242;DHT22;35079;52.704;13.814;2022-11-13T05:28:30;10.50;99.90
49242;DHT22;35079;52.704;13.814;2022-11-13T05:31:11;10.50;99.90
49242;DHT22;35079;52.704;13.814;2022-11-13T05:33:37;10.50;99.90
49242;DHT22;35079;52.704;13.814;2022-11-13T05:36:05;10.50;99.90
49242;DHT22;35079;52.704;13.814;2022-11-13T05:38:32;10.50;99.90
49242;DHT22;35079;52.704;13.814;2022-11-13T05:41:11;10.40;99.90
49242;DHT22;35079;52.704;13.814;2022-11-13T05:43:38;10.50;99.90
49242;DHT22;35079;52.704;13.814;2022-11-13T05:46:10;10.40;99.90
49242;DHT22;35079;52.704;13.814;2022-11-13T05:48:39;10.50;99.90
49242;DHT22;35079;52.704;13.814;2022-11-13T05:51:11;10.40;99.90
49242;DHT22;35079;52.704;13.814;2022-11-13T05:53:37;10.40;99.90
49242;DHT22;35079;52.704;13.814;2022-11-13T05:56:05;10.40;99.90
49242;DHT22;35079;52.704;13.814;2022-11-13T05:58:34;10.30;99.90
49242;DHT22;35079;52.704;13.814;2022-11-13T06:01:20;10.50;99.90
49242;DHT22;35079;52.704;13.814;2022-11-13T06:03:46;10.50;99.90
49242;DHT22;35079;52.704;13.814;2022-11-13T06:06:15;10.40;99.90
49242;DHT22;35079;52.704;13.814;2022-11-13T06:08:41;10.50;99.90
49242;DHT22;35079;52.704;13.814;2022-11-13T06:11:18;10.40;99.90
49242;DHT22;35079;52.704;13.814;2022-11-13T06:13:45;10.30;99.90
49242;DHT22;35079;52.704;13.814;2022-11-13T06:16:16;10.40;99.90
49242;DHT22;35079;52.704;13.814;2022-11-13T06:18:43;10.40;99.90
49242;DHT22;35079;52.704;13.814;2022-11-13T06:21:29;10.40;99.90
49242;DHT22;35079;52.704;13.814;2022-11-13T06:23:56;10.50;99.90
49242;DHT22;35079;52.704;13.814;2022-11-13T06:26:25;10.50;99.90
49242;DHT22;35079;52.704;13.814;2022-11-13T06:28:51;10.40;99.90
49242;DHT22;35079;52.704;13.814;2022-11-13T06:31:37;10.50;99.90
49242;DHT22;35079;52.704;13.814;2022-11-13T06:34:03;10.50;99.90
49242;DHT22;35079;52.704;13.814;2022-11-13T06:36:32;10.50;99.90
49242;DHT22;35079;52.704;13.814;2022-11-13T06:39:00;10.30;99.90
49242;DHT22;35079;52.704;13.814;2022-11-13T06:41:28;10.40;99.90
49242;DHT22;35079;52.704;13.814;2022-11-13T06:43:54;10.40;99.90
49242;DHT22;35079;52.704;13.814;2022-11-13T06:46:22;10.40;99.90
49242;DHT22;35079;52.704;13.814;2022-11-13T06:48:48;10.30;99.90
49242;DHT22;35079;52.704;13.814;2022-11-13T06:51:17;10.30;99.90
49242;DHT22;35079;52.704;13.814;2022-11-13T06:53:43;10.50;99.90
49242;DHT22;35079;52.704;13.814;2022-11-13T06:56:09;10.40;99.90
49242;DHT22;35079;52.704;13.814;2022-11-13T06:58:36;10.40;99.90
49242;DHT22;35079;52.704;13.814;2022-11-13T07:01:28;10.40;99.90
49242;DHT22;35079;52.704;13.814;2022-11-13T07:03:54;10.40;99.90
49242;DHT22;35079;52.704;13.814;2022-11-13T07:06:21;10.30;99.90
49242;DHT22;35079;52.704;13.814;2022-11-13T07:08:47;10.30;99.90
49242;DHT22;35079;52.704;13.814;2022-11-13T07:11:18;10.30;99.90
49242;DHT22;35079;52.704;13.814;2022-11-13T07:13:44;10.30;99.90
49242;DHT22;35079;52.704;13.814;2022-11-13T07:16:11;10.40;99.90
49242;DHT22;35079;52.704;13.814;2022-11-13T07:18:40;10.30;99.90
49242;DHT22;35079;52.704;13.814;2022-11-13T07:21:09;10.30;99.90
49242;DHT22;35079;52.704;13.814;2022-11-13T07:23:35;10.30;99.90
49242;DHT22;35079;52.704;13.814;2022-11-13T07:26:03;10.40;99.90
49242;DHT22;35079;52.704;13.814;2022-11-13T07:28:29;10.40;99.90
49242;DHT22;35079;52.704;13.814;2022-11-13T07:30:58;10.40;99.90
49242;DHT22;35079;52.704;13.814;2022-11-13T07:33:24;10.50;99.90
49242;DHT22;35079;52.704;13.814;2022-11-13T07:35:53;10.40;99.90
49242;DHT22;35079;52.704;13.814;2022-11-13T07:38:19;10.30;99.90
49242;DHT22;35079;52.704;13.814;2022-11-13T07:40:44;10.40;99.90
49242;DHT22;35079;52.704;13.814;2022-11-13T07:43:10;10.30;99.90
49242;DHT22;35079;52.704;13.814;2022-11-13T07:45:35;10.30;99.90
49242;DHT22;35079;52.704;13.814;2022-11-13T07:48:02;10.50;99.90
49242;DHT22;35079;52.704;13.814;2022-11-13T07:50:40;10.40;99.90
49242;DHT22;35079;52.704;13.814;2022-11-13T07:53:07;10.40;99.90
49242;DHT22;35079;52.704;13.814;2022-11-13T07:55:33;10.40;99.90
49242;DHT22;35079;52.704;13.814;2022-11-13T07:58:00;10.40;99.90
49242;DHT22;35079;52.704;13.814;2022-11-13T08:00:33;10.30;99.90
49242;DHT22;35079;52.704;13.814;2022-11-13T08:03:04;10.50;99.90
49242;DHT22;35079;52.704;13.814;2022-11-13T08:05:30;10.30;99.90
49242;DHT22;35079;52.704;13.814;2022-11-13T08:07:56;10.30;99.90
49242;DHT22;35079;52.704;13.814;2022-11-13T08:10:21;10.40;99.90
49242;DHT22;35079;52.704;13.814;2022-11-13T08:12:47;10.40;99.90
49242;DHT22;35079;52.704;13.814;2022-11-13T08:15:13;10.50;99.90
49242;DHT22;35079;52.704;13.814;2022-11-13T08:17:39;10.30;99.90
49242;DHT22;35079;52.704;13.814;2022-11-13T08:20:06;10.40;99.90
49242;DHT22;35079;52.704;13.814;2022-11-13T08:22:32;10.30;99.90
49242;DHT22;35079;52.704;13.814;2022-11-13T08:24:58;10.40;99.90
49242;DHT22;35079;52.704;13.814;2022-11-13T08:27:24;10.50;99.90
49242;DHT22;35079;52.704;13.814;2022-11-13T08:29:50;10.40;99.90
49242;DHT22;35079;52.704;13.814;2022-11-13T08:32:17;10.40;99.90
49242;DHT22;35079;52.704;13.814;2022-11-13T08:34:43;10.30;99.90
49242;DHT22;35079;52.704;13.814;2022-11-13T08:37:09;10.40;99.90
49242;DHT22;35079;52.704;13.814;2022-11-13T08:39:35;10.30;99.90
49242;DHT22;35079;52.704;13.814;2022-11-13T08:42:04;10.30;99.90
49242;DHT22;35079;52.704;13.814;2022-11-13T08:44:30;10.40;99.90
49242;DHT22;35079;52.704;13.814;2022-11-13T08:46:56;10.40;99.90
49242;DHT22;35079;52.704;13.814;2022-11-13T08:49:22;10.50;99.90
49242;DHT22;35079;52.704;13.814;2022-11-13T08:51:47;10.40;99.90
49242;DHT22;35079;52.704;13.814;2022-11-13T08:54:13;10.40;99.90
49242;DHT22;35079;52.704;13.814;2022-11-13T08:56:39;10.30;99.90
49242;DHT22;35079;52.704;13.814;2022-11-13T08:59:04;10.50;99.90
49242;DHT22;35079;52.704;13.814;2022-11-13T09:01:30;10.50;99.90
49242;DHT22;35079;52.704;13.814;2022-11-13T09:03:55;10.50;99.90
49242;DHT22;35079;52.704;13.814;2022-11-13T09:06:23;10.30;99.90
49242;DHT22;35079;52.704;13.814;2022-11-13T09:08:49;10.40;99.90
49242;DHT22;35079;52.704;13.814;2022-11-13T09:11:14;10.30;99.90
49242;DHT22;35079;52.704;13.814;2022-11-13T09:13:56;10.40;99.90
49242;DHT22;35079;52.704;13.814;2022-11-13T09:16:22;10.40;99.90
49242;DHT22;35079;52.704;13.814;2022-11-13T09:18:49;10.40;99.90
49242;DHT22;35079;52.704;13.814;2022-11-13T09:21:15;10.40;99.90
49242;DHT22;35079;52.704;13.814;2022-11-13T09:23:41;10.40;99.90
49242;DHT22;35079;52.704;13.814;2022-11-13T09:26:06;10.30;99.90
49242;DHT22;35079;52.704;13.814;2022-11-13T09:28:32;10.40;99.90
49242;DHT22;35079;52.704;13.814;2022-11-13T09:30:58;10.40;99.90
49242;DHT22;35079;52.704;13.814;2022-11-13T09:33:23;10.50;99.90
49242;DHT22;35079;52.704;13.814;2022-11-13T09:35:49;10.50;99.90
49242;DHT22;35079;52.704;13.814;2022-11-13T09:38:15;10.60;99.90
49242;DHT22;35079;52.704;13.814;2022-11-13T09:45:50;10.50;99.90
49242;DHT22;35079;52.704;13.814;2022-11-13T09:48:42;10.50;99.90
49242;DHT22;35079;52.704;13.814;2022-11-13T09:51:16;10.50;99.90
49242;DHT22;35079;52.704;13.814;2022-11-13T09:53:43;10.60;99.90
49242;DHT22;35079;52.704;13.814;2022-11-13T09:56:26;10.60;99.90
49242;DHT22;35079;52.704;13.814;2022-11-13T10:04:36;10.50;99.90
49242;DHT22;35079;52.704;13.814;2022-11-13T10:07:30;10.60;99.90
49242;DHT22;35079;52.704;13.814;2022-11-13T10:10:16;10.40;99.90
49242;DHT22;35079;52.704;13.814;2022-11-13T10:12:46;10.70;99.90
49242;DHT22;35079;52.704;13.814;2022-11-13T10:15:13;10.60;99.90
49242;DHT22;35079;52.704;13.814;2022-11-13T10:17:45;10.60;99.90
49242;DHT22;35079;52.704;13.814;2022-11-13T10:23:19;10.60;99.90
49242;DHT22;35079;52.704;13.814;2022-11-13T10:25:45;10.80;99.90
49242;DHT22;35079;52.704;13.814;2022-11-13T10:28:19;10.70;99.90
49242;DHT22;35079;52.704;13.814;2022-11-13T10:30:47;10.60;99.90
49242;DHT22;35079;52.704;13.814;2022-11-13T10:33:16;10.60;99.90
49242;DHT22;35079;52.704;13.814;2022-11-13T10:35:49;10.70;99.90
49242;DHT22;35079;52.704;13.814;2022-11-13T10:41:11;10.60;99.90
49242;DHT22;35079;52.704;13.814;2022-11-13T10:44:33;10.70;99.90
49242;DHT22;35079;52.704;13.814;2022-11-13T10:46:33;10.80;99.90
49242;DHT22;35079;52.704;13.814;2022-11-13T10:49:11;10.90;99.90
49242;DHT22;35079;52.704;13.814;2022-11-13T10:51:38;10.80;99.90
49242;DHT22;35079;52.704;13.814;2022-11-13T10:54:24;11.00;99.90
49242;DHT22;35079;52.704;13.814;2022-11-13T10:56:58;10.80;99.90
49242;DHT22;35079;52.704;13.814;2022-11-13T10:59:24;10.80;99.90
49242;DHT22;35079;52.704;13.814;2022-11-13T11:01:51;10.70;99.90
49242;DHT22;35079;52.704;13.814;2022-11-13T11:04:25;10.70;99.90
49242;DHT22;35079;52.704;13.814;2022-11-13T11:06:54;10.70;99.90
49242;DHT22;35079;52.704;13.814;2022-11-13T11:09:27;10.70;99.90
49242;DHT22;35079;52.704;13.814;2022-11-13T11:12:00;10.80;99.90
49242;DHT22;35079;52.704;13.814;2022-11-13T11:19:58;11.00;99.90
49242;DHT22;35079;52.704;13.814;2022-11-13T11:22:30;11.10;99.90
49242;DHT22;35079;52.704;13.814;2022-11-13T11:30:39;10.90;99.90
49242;DHT22;35079;52.704;13.814;2022-11-13T11:33:26;10.70;99.90
49242;DHT22;35079;52.704;13.814;2022-11-13T11:36:20;10.80;99.90
49242;DHT22;35079;52.704;13.814;2022-11-13T11:39:01;10.90;99.90
49242;DHT22;35079;52.704;13.814;2022-11-13T11:41:42;10.80;99.90
49242;DHT22;35079;52.704;13.814;2022-11-13T11:44:20;10.80;99.90
49242;DHT22;35079;52.704;13.814;2022-11-13T11:46:46;10.80;99.90
49242;DHT22;35079;52.704;13.814;2022-11-13T11:49:12;10.90;99.90
49242;DHT22;35079;52.704;13.814;2022-11-13T12:00:03;11.00;99.90
49242;DHT22;35079;52.704;13.814;2022-11-13T12:03:03;11.10;99.90
49242;DHT22;35079;52.704;13.814;2022-11-13T12:05:41;11.10;99.90
49242;DHT22;35079;52.704;13.814;2022-11-13T12:08:28;11.20;99.90
49242;DHT22;35079;52.704;13.814;2022-11-13T12:11:16;11.10;99.90
49242;DHT22;35079;52.704;13.814;2022-11-13T12:16:33;11.20;99.90
49242;DHT22;35079;52.704;13.814;2022-11-13T12:22:30;11.20;99.90
49242;DHT22;35079;52.704;13.814;2022-11-13T12:35:54;11.40;99.90
49242;DHT22;35079;52.704;13.814;2022-11-13T12:38:32;11.50;99.90
49242;DHT22;35079;52.704;13.814;2022-11-13T12:46:15;11.50;99.90
49242;DHT22;35079;52.704;13.814;2022-11-13T12:48:44;11.30;99.90
49242;DHT22;35079;52.704;13.814;2022-11-13T12:51:16;11.20;99.90
49242;DHT22;35079;52.704;13.814;2022-11-13T12:53:53;10.90;99.90
49242;DHT22;35079;52.704;13.814;2022-11-13T13:01:22;10.80;99.90
49242;DHT22;35079;52.704;13.814;2022-11-13T13:17:14;11.00;99.90
49242;DHT22;35079;52.704;13.814;2022-11-13T13:19:41;11.00;99.90
49242;DHT22;35079;52.704;13.814;2022-11-13T13:22:22;11.00;99.90
49242;DHT22;35079;52.704;13.814;2022-11-13T13:24:58;11.20;99.90
49242;DHT22;35079;52.704;13.814;2022-11-13T13:27:29;11.20;99.90
49242;DHT22;35079;52.704;13.814;2022-11-13T13:29:57;11.20;99.90
49242;DHT22;35079;52.704;13.814;2022-11-13T13:32:34;11.20;99.90
49242;DHT22;35079;52.704;13.814;2022-11-13T13:35:14;11.30;99.90
49242;DHT22;35079;52.704;13.814;2022-11-13T13:44:14;11.00;99.90
49242;DHT22;35079;52.704;13.814;2022-11-13T13:46:45;10.90;99.90
49242;DHT22;35079;52.704;13.814;2022-11-13T13:49:14;10.90;99.90
49242;DHT22;35079;52.704;13.814;2022-11-13T13:51:44;10.90;99.90
49242;DHT22;35079;52.704;13.814;2022-11-13T13:54:30;10.90;99.90
49242;DHT22;35079;52.704;13.814;2022-11-13T13:56:57;10.90;99.90
49242;DHT22;35079;52.704;13.814;2022-11-13T13:59:34;10.80;99.90
49242;DHT22;35079;52.704;13.814;2022-11-13T14:02:02;10.90;99.90
49242;DHT22;35079;52.704;13.814;2022-11-13T14:04:51;11.00;99.90
49242;DHT22;35079;52.704;13.814;2022-11-13T14:07:25;10.80;99.90
49242;DHT22;35079;52.704;13.814;2022-11-13T14:10:20;10.80;99.90
49242;DHT22;35079;52.704;13.814;2022-11-13T14:12:48;10.80;99.90
49242;DHT22;35079;52.704;13.814;2022-11-13T14:15:31;10.70;99.90
49242;DHT22;35079;52.704;13.814;2022-11-13T14:20:49;10.70;99.90
49242;DHT22;35079;52.704;13.814;2022-11-13T14:23:39;10.50;99.90
49242;DHT22;35079;52.704;13.814;2022-11-13T14:26:07;10.30;99.90
49242;DHT22;35079;52.704;13.814;2022-11-13T14:28:57;10.20;99.90
49242;DHT22;35079;52.704;13.814;2022-11-13T14:31:34;10.30;99.90
49242;DHT22;35079;52.704;13.814;2022-11-13T14:34:06;10.30;99.90
49242;DHT22;35079;52.704;13.814;2022-11-13T14:36:33;10.40;99.90
49242;DHT22;35079;52.704;13.814;2022-11-13T14:38:59;10.50;99.90
49242;DHT22;35079;52.704;13.814;2022-11-13T14:41:44;10.30;99.90
49242;DHT22;35079;52.704;13.814;2022-11-13T14:44:11;10.40;99.90
49242;DHT22;35079;52.704;13.814;2022-11-13T14:46:40;10.40;99.90
49242;DHT22;35079;52.704;13.814;2022-11-13T14:49:29;10.40;99.90
49242;DHT22;35079;52.704;13.814;2022-11-13T14:51:56;10.20;99.90
49242;DHT22;35079;52.704;13.814;2022-11-13T14:54:32;10.20;99.90
49242;DHT22;35079;52.704;13.814;2022-11-13T14:57:09;10.10;99.90
49242;DHT22;35079;52.704;13.814;2022-11-13T14:59:36;10.10;99.90
49242;DHT22;35079;52.704;13.814;2022-11-13T15:02:02;9.90;99.90
49242;DHT22;35079;52.704;13.814;2022-11-13T15:04:28;9.80;99.90
49242;DHT22;35079;52.704;13.814;2022-11-13T15:07:02;9.50;99.90
49242;DHT22;35079;52.704;13.814;2022-11-13T15:09:29;9.60;99.90
49242;DHT22;35079;52.704;13.814;2022-11-13T15:11:55;9.60;99.90
49242;DHT22;35079;52.704;13.814;2022-11-13T15:14:21;9.80;99.90
49242;DHT22;35079;52.704;13.814;2022-11-13T15:16:49;9.60;99.90
49242;DHT22;35079;52.704;13.814;2022-11-13T15:19:19;9.60;99.90
49242;DHT22;35079;52.704;13.814;2022-11-13T15:21:48;9.50;99.90
49242;DHT22;35079;52.704;13.814;2022-11-13T15:24:14;9.40;99.90
49242;DHT22;35079;52.704;13.814;2022-11-13T15:26:40;9.40;99.90
49242;DHT22;35079;52.704;13.814;2022-11-13T15:29:11;9.20;99.90
49242;DHT22;35079;52.704;13.814;2022-11-13T15:31:40;9.30;99.90
49242;DHT22;35079;52.704;13.814;2022-11-13T15:34:11;9.20;99.90
49242;DHT22;35079;52.704;13.814;2022-11-13T15:36:38;9.20;99.90
49242;DHT22;35079;52.704;13.814;2022-11-13T15:39:04;9.30;99.90
49242;DHT22;35079;52.704;13.814;2022-11-13T15:41:30;9.20;99.90
49242;DHT22;35079;52.704;13.814;2022-11-13T15:43:59;9.20;99.90
49242;DHT22;35079;52.704;13.814;2022-11-13T15:46:26;9.00;99.90
49242;DHT22;35079;52.704;13.814;2022-11-13T15:48:52;8.80;99.90
49242;DHT22;35079;52.704;13.814;2022-11-13T15:54:25;8.80;99.90
49242;DHT22;35079;52.704;13.814;2022-11-13T15:56:53;8.80;99.90
49242;DHT22;35079;52.704;13.814;2022-11-13T15:59:19;8.70;99.90
49242;DHT22;35079;52.704;13.814;2022-11-13T16:01:45;8.80;99.90
49242;DHT22;35079;52.704;13.814;2022-11-13T16:04:11;8.70;99.90
49242;DHT22;35079;52.704;13.814;2022-11-13T16:06:42;8.70;99.90
49242;DHT22;35079;52.704;13.814;2022-11-13T16:09:12;8.60;99.90
49242;DHT22;35079;52.704;13.814;2022-11-13T16:11:38;8.70;99.90
49242;DHT22;35079;52.704;13.814;2022-11-13T16:14:04;8.50;99.90
49242;DHT22;35079;52.704;13.814;2022-11-13T16:16:32;8.50;99.90
49242;DHT22;35079;52.704;13.814;2022-11-13T16:18:59;8.50;99.90
49242;DHT22;35079;52.704;13.814;2022-11-13T16:21:24;8.40;99.90
49242;DHT22;35079;52.704;13.814;2022-11-13T16:23:51;8.40;99.90
49242;DHT22;35079;52.704;13.814;2022-11-13T16:26:19;8.40;99.90
49242;DHT22;35079;52.704;13.814;2022-11-13T16:28:46;8.40;99.90
49242;DHT22;35079;52.704;13.814;2022-11-13T16:31:13;8.40;99.90
49242;DHT22;35079;52.704;13.814;2022-11-13T16:33:39;8.40;99.90
49242;DHT22;35079;52.704;13.814;2022-11-13T16:36:13;8.40;99.90
49242;DHT22;35079;52.704;13.814;2022-11-13T16:38:40;8.20;99.90
49242;DHT22;35079;52.704;13.814;2022-11-13T16:41:05;8.30;99.90
49242;DHT22;35079;52.704;13.814;2022-11-13T16:43:31;8.30;99.90
49242;DHT22;35079;52.704;13.814;2022-11-13T16:45:59;8.30;99.90
49242;DHT22;35079;52.704;13.814;2022-11-13T16:48:25;8.20;99.90
49242;DHT22;35079;52.704;13.814;2022-11-13T16:50:51;8.20;99.90
49242;DHT22;35079;52.704;13.814;2022-11-13T16:53:16;8.20;99.90
49242;DHT22;35079;52.704;13.814;2022-11-13T16:55:42;8.10;99.90
49242;DHT22;35079;52.704;13.814;2022-11-13T16:58:11;8.20;99.90
49242;DHT22;35079;52.704;13.814;2022-11-13T17:00:37;8.10;99.90